sensor_id;sensor_type;location;lat;lon;timestamp;temperature;humidity
71563;DHT22;59391;52.504;13.438;2022-09-03T00:01:45;17.70;43.30
71563;DHT22;59391;52.504;13.438;2022-09-03T00:04:29;17.70;43.40
71563;DHT22;59391;52.504;13.438;2022-09-03T00:07:10;17.70;43.80
71563;DHT22;59391;52.504;13.438;2022-09-03T00:09:46;17.60;43.70
71563;DHT22;59391;52.504;13.438;2022-09-03T00:12:21;17.60;43.60
71563;DHT22;59391;52.504;13.438;2022-09-03T00:15:12;17.60;43.60
71563;DHT22;59391;52.504;13.438;2022-09-03T00:17:51;17.60;43.80
71563;DHT22;59391;52.504;13.438;2022-09-03T00:20:27;17.60;43.80
71563;DHT22;59391;52.504;13.438;2022-09-03T00:23:11;17.50;43.90
71563;DHT22;59391;52.504;13.438;2022-09-03T00:25:55;17.50;43.90
71563;DHT22;59391;52.504;13.438;2022-09-03T00:28:35;17.50;44.00
71563;DHT22;59391;52.504;13.438;2022-09-03T00:31:12;17.50;44.10
71563;DHT22;59391;52.504;13.438;2022-09-03T00:33:43;17.50;44.10
71563;DHT22;59391;52.504;13.438;2022-09-03T00:36:20;17.40;44.30
71563;DHT22;59391;52.504;13.438;2022-09-03T00:38:50;17.40;44.50
71563;DHT22;59391;52.504;13.438;2022-09-03T00:41:29;17.40;44.20
71563;DHT22;59391;52.504;13.438;2022-09-03T00:47:10;17.30;44.30
71563;DHT22;59391;52.504;13.438;2022-09-03T00:50:03;17.30;44.60
71563;DHT22;59391;52.504;13.438;2022-09-03T00:53:16;17.30;44.70
71563;DHT22;59391;52.504;13.438;2022-09-03T00:56:16;17.30;44.60
71563;DHT22;59391;52.504;13.438;2022-09-03T00:59:30;17.20;44.50
71563;DHT22;59391;52.504;13.438;2022-09-03T01:04:58;17.20;44.80
71563;DHT22;59391;52.504;13.438;2022-09-03T01:10:29;17.10;45.10
71563;DHT22;59391;52.504;13.438;2022-09-03T01:13:27;17.10;45.00
71563;DHT22;59391;52.504;13.438;2022-09-03T01:16:23;17.10;44.80
71563;DHT22;59391;52.504;13.438;2022-09-03T01:30:23;16.90;45.00
71563;DHT22;59391;52.504;13.438;2022-09-03T01:33:08;16.90;45.40
71563;DHT22;59391;52.504;13.438;2022-09-03T01:35:52;16.90;45.30
71563;DHT22;59391;52.504;13.438;2022-09-03T01:38:54;16.80;45.50
71563;DHT22;59391;52.504;13.438;2022-09-03T01:41:40;16.80;45.30
71563;DHT22;59391;52.504;13.438;2022-09-03T01:50:52;16.80;45.70
71563;DHT22;59391;52.504;13.438;2022-09-03T01:59:17;16.70;45.70
71563;DHT22;59391;52.504;13.438;2022-09-03T02:02:06;16.70;45.70
71563;DHT22;59391;52.504;13.438;2022-09-03T02:05:02;16.60;45.70
71563;DHT22;59391;52.504;13.438;2022-09-03T02:08:04;16.60;45.90
71563;DHT22;59391;52.504;13.438;2022-09-03T02:10:46;16.60;46.00
71563;DHT22;59391;52.504;13.438;2022-09-03T02:13:23;16.60;46.10
71563;DHT22;59391;52.504;13.438;2022-09-03T02:15:53;16.50;46.30
71563;DHT22;59391;52.504;13.438;2022-09-03T02:18:28;16.50;46.40
71563;DHT22;59391;52.504;13.438;2022-09-03T02:20:58;16.50;46.40
71563;DHT22;59391;52.504;13.438;2022-09-03T02:23:26;16.50;46.40
71563;DHT22;59391;52.504;13.438;2022-09-03T02:25:59;16.40;46.90
71563;DHT22;59391;52.504;13.438;2022-09-03T02:28:28;16.40;46.50
71563;DHT22;59391;52.504;13.438;2022-09-03T02:30:55;16.40;46.40
71563;DHT22;59391;52.504;13.438;2022-09-03T02:33:21;16.40;46.70
71563;DHT22;59391;52.504;13.438;2022-09-03T02:35:47;16.30;46.90
71563;DHT22;59391;52.504;13.438;2022-09-03T02:38:16;16.30;46.80
71563;DHT22;59391;52.504;13.438;2022-09-03T02:40:44;16.30;46.70
71563;DHT22;59391;52.504;13.438;2022-09-03T02:43:35;16.30;46.80
71563;DHT22;59391;52.504;13.438;2022-09-03T02:46:09;16.20;46.80
71563;DHT22;59391;52.504;13.438;2022-09-03T02:48:39;16.20;47.10
71563;DHT22;59391;52.504;13.438;2022-09-03T02:51:05;16.20;46.90
71563;DHT22;59391;52.504;13.438;2022-09-03T02:53:30;16.10;46.80
71563;DHT22;59391;52.504;13.438;2022-09-03T02:55:58;16.10;47.00
71563;DHT22;59391;52.504;13.438;2022-09-03T02:58:25;16.10;46.90
71563;DHT22;59391;52.504;13.438;2022-09-03T03:00:51;16.10;47.10
71563;DHT22;59391;52.504;13.438;2022-09-03T03:03:17;16.10;47.00
71563;DHT22;59391;52.504;13.438;2022-09-03T03:05:50;16.10;47.10
71563;DHT22;59391;52.504;13.438;2022-09-03T03:08:20;16.10;47.30
71563;DHT22;59391;52.504;13.438;2022-09-03T03:10:51;16.00;47.00
71563;DHT22;59391;52.504;13.438;2022-09-03T03:13:18;16.00;47.30
71563;DHT22;59391;52.504;13.438;2022-09-03T03:15:44;16.00;47.20
71563;DHT22;59391;52.504;13.438;2022-09-03T03:18:12;16.00;47.60
71563;DHT22;59391;52.504;13.438;2022-09-03T03:20:38;16.00;47.20
71563;DHT22;59391;52.504;13.438;2022-09-03T03:23:05;16.00;47.20
71563;DHT22;59391;52.504;13.438;2022-09-03T03:25:33;16.00;47.50
71563;DHT22;59391;52.504;13.438;2022-09-03T03:27:59;15.90;47.60
71563;DHT22;59391;52.504;13.438;2022-09-03T03:30:25;16.00;47.50
71563;DHT22;59391;52.504;13.438;2022-09-03T03:32:54;15.90;47.30
71563;DHT22;59391;52.504;13.438;2022-09-03T03:35:21;15.90;47.30
71563;DHT22;59391;52.504;13.438;2022-09-03T03:37:47;15.90;47.20
71563;DHT22;59391;52.504;13.438;2022-09-03T03:40:13;15.80;47.40
71563;DHT22;59391;52.504;13.438;2022-09-03T03:42:39;15.80;47.20
71563;DHT22;59391;52.504;13.438;2022-09-03T03:45:06;15.80;47.40
71563;DHT22;59391;52.504;13.438;2022-09-03T03:47:34;15.80;47.70
71563;DHT22;59391;52.504;13.438;2022-09-03T03:50:01;15.80;47.50
71563;DHT22;59391;52.504;13.438;2022-09-03T03:52:28;15.70;47.60
71563;DHT22;59391;52.504;13.438;2022-09-03T03:54:54;15.70;47.90
71563;DHT22;59391;52.504;13.438;2022-09-03T03:57:21;15.70;47.80
71563;DHT22;59391;52.504;13.438;2022-09-03T03:59:48;15.70;47.80
71563;DHT22;59391;52.504;13.438;2022-09-03T04:02:16;15.70;47.70
71563;DHT22;59391;52.504;13.438;2022-09-03T04:04:42;15.70;47.90
71563;DHT22;59391;52.504;13.438;2022-09-03T04:07:08;15.70;48.00
71563;DHT22;59391;52.504;13.438;2022-09-03T04:09:34;15.70;47.90
71563;DHT22;59391;52.504;13.438;2022-09-03T04:12:00;15.70;48.10
71563;DHT22;59391;52.504;13.438;2022-09-03T04:14:26;15.70;47.80
71563;DHT22;59391;52.504;13.438;2022-09-03T04:16:52;15.70;48.00
71563;DHT22;59391;52.504;13.438;2022-09-03T04:19:19;15.70;48.10
71563;DHT22;59391;52.504;13.438;2022-09-03T04:21:45;15.70;48.20
71563;DHT22;59391;52.504;13.438;2022-09-03T04:24:11;15.70;48.10
71563;DHT22;59391;52.504;13.438;2022-09-03T04:26:36;15.70;48.40
71563;DHT22;59391;52.504;13.438;2022-09-03T04:29:05;15.70;48.30
71563;DHT22;59391;52.504;13.438;2022-09-03T04:31:32;15.70;48.50
71563;DHT22;59391;52.504;13.438;2022-09-03T04:33:58;15.70;48.50
71563;DHT22;59391;52.504;13.438;2022-09-03T04:36:25;15.70;48.50
71563;DHT22;59391;52.504;13.438;2022-09-03T04:38:54;15.60;48.50
71563;DHT22;59391;52.504;13.438;2022-09-03T04:41:25;15.60;48.40
71563;DHT22;59391;52.504;13.438;2022-09-03T04:43:53;15.60;48.70
71563;DHT22;59391;52.504;13.438;2022-09-03T04:46:22;15.60;48.80
71563;DHT22;59391;52.504;13.438;2022-09-03T04:48:52;15.60;49.00
71563;DHT22;59391;52.504;13.438;2022-09-03T04:51:21;15.50;49.10
71563;DHT22;59391;52.504;13.438;2022-09-03T04:53:57;15.50;49.30
71563;DHT22;59391;52.504;13.438;2022-09-03T04:56:27;15.50;49.30
71563;DHT22;59391;52.504;13.438;2022-09-03T04:58:57;15.50;49.60
71563;DHT22;59391;52.504;13.438;2022-09-03T05:01:27;15.50;49.50
71563;DHT22;59391;52.504;13.438;2022-09-03T05:06:42;15.50;49.90
71563;DHT22;59391;52.504;13.438;2022-09-03T05:09:09;15.50;50.10
71563;DHT22;59391;52.504;13.438;2022-09-03T05:11:35;15.50;50.10
71563;DHT22;59391;52.504;13.438;2022-09-03T05:14:04;15.50;50.40
71563;DHT22;59391;52.504;13.438;2022-09-03T05:16:47;15.50;50.50
71563;DHT22;59391;52.504;13.438;2022-09-03T05:19:13;15.50;50.50
71563;DHT22;59391;52.504;13.438;2022-09-03T05:21:49;15.50;50.70
71563;DHT22;59391;52.504;13.438;2022-09-03T05:24:14;15.50;50.70
71563;DHT22;59391;52.504;13.438;2022-09-03T05:26:45;15.50;50.80
71563;DHT22;59391;52.504;13.438;2022-09-03T05:29:16;15.50;50.90
71563;DHT22;59391;52.504;13.438;2022-09-03T05:32:02;15.50;51.00
71563;DHT22;59391;52.504;13.438;2022-09-03T05:34:45;15.50;51.10
71563;DHT22;59391;52.504;13.438;2022-09-03T05:37:13;15.50;51.10
71563;DHT22;59391;52.504;13.438;2022-09-03T05:39:49;15.60;51.30
71563;DHT22;59391;52.504;13.438;2022-09-03T05:42:18;15.50;51.30
71563;DHT22;59391;52.504;13.438;2022-09-03T05:45:11;15.60;51.40
71563;DHT22;59391;52.504;13.438;2022-09-03T05:47:58;15.60;51.30
71563;DHT22;59391;52.504;13.438;2022-09-03T05:50:40;15.60;51.70
71563;DHT22;59391;52.504;13.438;2022-09-03T05:54:01;15.60;51.60
71563;DHT22;59391;52.504;13.438;2022-09-03T05:57:17;15.60;52.00
71563;DHT22;59391;52.504;13.438;2022-09-03T06:04:21;15.70;51.90
71563;DHT22;59391;52.504;13.438;2022-09-03T06:07:13;15.70;51.90
71563;DHT22;59391;52.504;13.438;2022-09-03T06:09:42;15.70;52.10
71563;DHT22;59391;52.504;13.438;2022-09-03T06:12:30;15.80;52.10
71563;DHT22;59391;52.504;13.438;2022-09-03T06:15:12;15.80;52.10
71563;DHT22;59391;52.504;13.438;2022-09-03T06:18:00;15.80;52.10
71563;DHT22;59391;52.504;13.438;2022-09-03T06:20:57;15.90;52.20
71563;DHT22;59391;52.504;13.438;2022-09-03T06:23:58;15.90;52.10
71563;DHT22;59391;52.504;13.438;2022-09-03T06:26:56;16.00;52.00
71563;DHT22;59391;52.504;13.438;2022-09-03T06:29:45;16.00;52.00
71563;DHT22;59391;52.504;13.438;2022-09-03T06:32:20;16.10;51.80
71563;DHT22;59391;52.504;13.438;2022-09-03T06:38:18;16.20;52.00
71563;DHT22;59391;52.504;13.438;2022-09-03T06:56:52;16.60;51.30
71563;DHT22;59391;52.504;13.438;2022-09-03T07:09:44;17.10;50.20
71563;DHT22;59391;52.504;13.438;2022-09-03T07:16:29;17.30;50.30
71563;DHT22;59391;52.504;13.438;2022-09-03T07:20:04;17.40;49.60
71563;DHT22;59391;52.504;13.438;2022-09-03T07:35:09;17.80;48.80
71563;DHT22;59391;52.504;13.438;2022-09-03T08:03:41;18.60;47.20
71563;DHT22;59391;52.504;13.438;2022-09-03T08:09:26;18.90;46.30
71563;DHT22;59391;52.504;13.438;2022-09-03T08:12:34;19.00;46.40
71563;DHT22;59391;52.504;13.438;2022-09-03T08:53:24;22.60;38.90
71563;DHT22;59391;52.504;13.438;2022-09-03T08:56:19;23.00;38.80
71563;DHT22;59391;52.504;13.438;2022-09-03T09:12:58;25.10;36.00
71563;DHT22;59391;52.504;13.438;2022-09-03T09:16:18;25.50;34.60
71563;DHT22;59391;52.504;13.438;2022-09-03T09:22:33;26.10;33.80
71563;DHT22;59391;52.504;13.438;2022-09-03T09:25:39;26.50;33.10
71563;DHT22;59391;52.504;13.438;2022-09-03T09:28:21;26.80;32.60
71563;DHT22;59391;52.504;13.438;2022-09-03T09:30:55;27.10;32.00
71563;DHT22;59391;52.504;13.438;2022-09-03T09:33:25;27.30;32.10
71563;DHT22;59391;52.504;13.438;2022-09-03T09:35:55;27.60;31.90
71563;DHT22;59391;52.504;13.438;2022-09-03T09:38:30;27.90;30.90
71563;DHT22;59391;52.504;13.438;2022-09-03T09:41:17;28.10;30.40
71563;DHT22;59391;52.504;13.438;2022-09-03T09:47:29;28.60;29.20
71563;DHT22;59391;52.504;13.438;2022-09-03T09:50:13;28.80;29.60
71563;DHT22;59391;52.504;13.438;2022-09-03T09:53:10;28.90;29.00
71563;DHT22;59391;52.504;13.438;2022-09-03T09:56:22;29.00;28.40
71563;DHT22;59391;52.504;13.438;2022-09-03T09:59:04;29.10;27.90
71563;DHT22;59391;52.504;13.438;2022-09-03T10:01:44;29.20;28.30
71563;DHT22;59391;52.504;13.438;2022-09-03T10:04:40;29.30;29.00
71563;DHT22;59391;52.504;13.438;2022-09-03T10:07:25;29.50;27.80
71563;DHT22;59391;52.504;13.438;2022-09-03T10:09:58;29.60;27.60
71563;DHT22;59391;52.504;13.438;2022-09-03T10:12:41;29.80;27.40
71563;DHT22;59391;52.504;13.438;2022-09-03T10:15:29;29.90;27.00
71563;DHT22;59391;52.504;13.438;2022-09-03T10:24:32;30.20;25.90
71563;DHT22;59391;52.504;13.438;2022-09-03T10:27:10;30.20;25.70
71563;DHT22;59391;52.504;13.438;2022-09-03T10:29:39;30.20;25.80
71563;DHT22;59391;52.504;13.438;2022-09-03T10:32:37;30.20;26.00
71563;DHT22;59391;52.504;13.438;2022-09-03T10:35:30;30.30;25.50
71563;DHT22;59391;52.504;13.438;2022-09-03T10:38:33;30.40;25.40
71563;DHT22;59391;52.504;13.438;2022-09-03T10:41:27;30.40;25.70
71563;DHT22;59391;52.504;13.438;2022-09-03T10:44:26;30.30;25.50
71563;DHT22;59391;52.504;13.438;2022-09-03T10:47:30;30.10;24.90
71563;DHT22;59391;52.504;13.438;2022-09-03T10:50:17;29.70;25.60
71563;DHT22;59391;52.504;13.438;2022-09-03T10:53:15;29.20;25.80
71563;DHT22;59391;52.504;13.438;2022-09-03T10:59:15;28.50;26.50
71563;DHT22;59391;52.504;13.438;2022-09-03T11:05:41;27.60;27.60
71563;DHT22;59391;52.504;13.438;2022-09-03T11:08:30;27.30;28.40
71563;DHT22;59391;52.504;13.438;2022-09-03T11:11:20;27.10;28.30
71563;DHT22;59391;52.504;13.438;2022-09-03T11:14:10;26.90;28.00
71563;DHT22;59391;52.504;13.438;2022-09-03T11:16:45;26.80;27.90
71563;DHT22;59391;52.504;13.438;2022-09-03T11:19:24;26.70;28.20
71563;DHT22;59391;52.504;13.438;2022-09-03T11:21:58;26.70;28.50
71563;DHT22;59391;52.504;13.438;2022-09-03T11:24:26;26.80;28.10
71563;DHT22;59391;52.504;13.438;2022-09-03T11:27:25;26.90;28.10
71563;DHT22;59391;52.504;13.438;2022-09-03T11:35:48;27.00;28.50
71563;DHT22;59391;52.504;13.438;2022-09-03T11:38:21;27.00;28.10
71563;DHT22;59391;52.504;13.438;2022-09-03T11:41:13;26.90;27.90
71563;DHT22;59391;52.504;13.438;2022-09-03T11:43:47;26.90;28.30
71563;DHT22;59391;52.504;13.438;2022-09-03T11:46:28;26.90;28.50
71563;DHT22;59391;52.504;13.438;2022-09-03T11:48:56;26.90;27.90
71563;DHT22;59391;52.504;13.438;2022-09-03T11:51:36;27.00;27.90
71563;DHT22;59391;52.504;13.438;2022-09-03T11:54:06;27.10;28.00
71563;DHT22;59391;52.504;13.438;2022-09-03T11:56:50;27.30;28.10
71563;DHT22;59391;52.504;13.438;2022-09-03T11:59:28;27.40;27.40
71563;DHT22;59391;52.504;13.438;2022-09-03T12:02:14;27.50;27.30
71563;DHT22;59391;52.504;13.438;2022-09-03T12:05:10;27.40;27.30
71563;DHT22;59391;52.504;13.438;2022-09-03T12:08:06;27.30;27.60
71563;DHT22;59391;52.504;13.438;2022-09-03T12:10:50;27.20;27.40
71563;DHT22;59391;52.504;13.438;2022-09-03T12:13:39;27.00;27.10
71563;DHT22;59391;52.504;13.438;2022-09-03T12:16:40;26.90;27.40
71563;DHT22;59391;52.504;13.438;2022-09-03T12:19:27;26.60;27.40
71563;DHT22;59391;52.504;13.438;2022-09-03T12:22:00;26.50;27.40
71563;DHT22;59391;52.504;13.438;2022-09-03T12:24:28;26.30;27.40
71563;DHT22;59391;52.504;13.438;2022-09-03T12:27:00;26.20;27.50
71563;DHT22;59391;52.504;13.438;2022-09-03T12:29:28;26.10;27.70
71563;DHT22;59391;52.504;13.438;2022-09-03T12:32:03;26.10;27.30
71563;DHT22;59391;52.504;13.438;2022-09-03T12:34:31;26.10;27.20
71563;DHT22;59391;52.504;13.438;2022-09-03T12:36:57;26.10;27.80
71563;DHT22;59391;52.504;13.438;2022-09-03T12:39:24;26.00;27.50
71563;DHT22;59391;52.504;13.438;2022-09-03T12:47:14;25.80;27.70
71563;DHT22;59391;52.504;13.438;2022-09-03T12:49:51;25.80;28.00
71563;DHT22;59391;52.504;13.438;2022-09-03T12:58:25;26.20;27.30
71563;DHT22;59391;52.504;13.438;2022-09-03T13:01:08;26.20;27.30
71563;DHT22;59391;52.504;13.438;2022-09-03T13:03:52;26.10;27.60
71563;DHT22;59391;52.504;13.438;2022-09-03T13:06:27;26.10;27.40
71563;DHT22;59391;52.504;13.438;2022-09-03T13:09:03;26.00;27.70
71563;DHT22;59391;52.504;13.438;2022-09-03T13:11:32;26.00;27.60
71563;DHT22;59391;52.504;13.438;2022-09-03T13:14:03;25.90;27.70
71563;DHT22;59391;52.504;13.438;2022-09-03T13:26:04;25.80;28.00
71563;DHT22;59391;52.504;13.438;2022-09-03T13:29:00;25.90;28.00
71563;DHT22;59391;52.504;13.438;2022-09-03T13:31:54;25.90;28.10
71563;DHT22;59391;52.504;13.438;2022-09-03T13:34:31;25.90;27.60
71563;DHT22;59391;52.504;13.438;2022-09-03T13:37:16;25.80;27.60
71563;DHT22;59391;52.504;13.438;2022-09-03T13:40:18;25.70;27.80
71563;DHT22;59391;52.504;13.438;2022-09-03T13:42:57;25.70;28.00
71563;DHT22;59391;52.504;13.438;2022-09-03T13:45:43;25.70;28.20
71563;DHT22;59391;52.504;13.438;2022-09-03T13:48:36;25.70;28.30
71563;DHT22;59391;52.504;13.438;2022-09-03T13:54:41;25.80;28.70
71563;DHT22;59391;52.504;13.438;2022-09-03T13:57:29;25.80;29.30
71563;DHT22;59391;52.504;13.438;2022-09-03T14:00:10;25.90;28.70
71563;DHT22;59391;52.504;13.438;2022-09-03T14:02:53;26.00;28.10
71563;DHT22;59391;52.504;13.438;2022-09-03T14:05:30;26.00;27.80
71563;DHT22;59391;52.504;13.438;2022-09-03T14:08:20;26.00;28.10
71563;DHT22;59391;52.504;13.438;2022-09-03T14:13:49;25.90;28.00
71563;DHT22;59391;52.504;13.438;2022-09-03T14:22:17;25.70;28.20
71563;DHT22;59391;52.504;13.438;2022-09-03T14:24:51;25.60;28.20
71563;DHT22;59391;52.504;13.438;2022-09-03T14:27:25;25.60;28.10
71563;DHT22;59391;52.504;13.438;2022-09-03T14:30:16;25.50;28.30
71563;DHT22;59391;52.504;13.438;2022-09-03T14:33:13;25.40;28.50
71563;DHT22;59391;52.504;13.438;2022-09-03T14:36:25;25.30;28.60
71563;DHT22;59391;52.504;13.438;2022-09-03T14:39:21;25.30;28.70
71563;DHT22;59391;52.504;13.438;2022-09-03T14:42:17;25.20;28.80
71563;DHT22;59391;52.504;13.438;2022-09-03T14:50:43;25.30;28.80
71563;DHT22;59391;52.504;13.438;2022-09-03T14:53:53;25.40;28.80
71563;DHT22;59391;52.504;13.438;2022-09-03T14:59:38;25.60;28.60
71563;DHT22;59391;52.504;13.438;2022-09-03T15:05:53;25.60;28.40
71563;DHT22;59391;52.504;13.438;2022-09-03T15:08:51;25.60;28.30
71563;DHT22;59391;52.504;13.438;2022-09-03T15:11:32;25.50;28.50
71563;DHT22;59391;52.504;13.438;2022-09-03T15:14:13;25.40;28.70
71563;DHT22;59391;52.504;13.438;2022-09-03T15:17:14;25.30;28.90
71563;DHT22;59391;52.504;13.438;2022-09-03T15:20:20;25.30;29.10
71563;DHT22;59391;52.504;13.438;2022-09-03T15:26:04;25.30;29.20
71563;DHT22;59391;52.504;13.438;2022-09-03T15:43:29;25.50;28.70
71563;DHT22;59391;52.504;13.438;2022-09-03T15:45:59;25.40;28.30
71563;DHT22;59391;52.504;13.438;2022-09-03T15:48:57;25.40;28.20
71563;DHT22;59391;52.504;13.438;2022-09-03T15:51:30;25.40;28.40
71563;DHT22;59391;52.504;13.438;2022-09-03T15:54:18;25.40;28.60
71563;DHT22;59391;52.504;13.438;2022-09-03T15:57:16;25.40;28.50
71563;DHT22;59391;52.504;13.438;2022-09-03T16:00:07;25.40;28.30
71563;DHT22;59391;52.504;13.438;2022-09-03T16:02:57;25.40;28.70
71563;DHT22;59391;52.504;13.438;2022-09-03T16:05:47;25.40;29.00
71563;DHT22;59391;52.504;13.438;2022-09-03T16:08:30;25.40;29.20
71563;DHT22;59391;52.504;13.438;2022-09-03T16:11:20;25.40;28.80
71563;DHT22;59391;52.504;13.438;2022-09-03T16:14:09;25.40;28.90
71563;DHT22;59391;52.504;13.438;2022-09-03T16:19:44;25.40;29.10
71563;DHT22;59391;52.504;13.438;2022-09-03T16:22:42;25.40;28.90
71563;DHT22;59391;52.504;13.438;2022-09-03T16:25:28;25.40;29.00
71563;DHT22;59391;52.504;13.438;2022-09-03T16:28:08;25.40;28.80
71563;DHT22;59391;52.504;13.438;2022-09-03T16:34:43;25.20;29.20
71563;DHT22;59391;52.504;13.438;2022-09-03T16:41:10;25.10;29.80
71563;DHT22;59391;52.504;13.438;2022-09-03T16:47:12;25.00;29.90
71563;DHT22;59391;52.504;13.438;2022-09-03T16:50:13;25.10;29.90
71563;DHT22;59391;52.504;13.438;2022-09-03T16:55:56;25.10;32.50
71563;DHT22;59391;52.504;13.438;2022-09-03T16:59:01;25.00;31.50
71563;DHT22;59391;52.504;13.438;2022-09-03T17:17:42;24.00;31.50
71563;DHT22;59391;52.504;13.438;2022-09-03T17:20:48;23.90;32.00
71563;DHT22;59391;52.504;13.438;2022-09-03T17:27:09;23.80;32.10
71563;DHT22;59391;52.504;13.438;2022-09-03T17:29:54;23.80;32.00
71563;DHT22;59391;52.504;13.438;2022-09-03T17:39:04;23.70;32.30
71563;DHT22;59391;52.504;13.438;2022-09-03T17:41:59;23.70;32.50
71563;DHT22;59391;52.504;13.438;2022-09-03T17:44:43;23.60;32.30
71563;DHT22;59391;52.504;13.438;2022-09-03T17:48:05;23.60;32.50
71563;DHT22;59391;52.504;13.438;2022-09-03T17:53:48;23.50;32.60
71563;DHT22;59391;52.504;13.438;2022-09-03T17:56:32;23.40;32.70
71563;DHT22;59391;52.504;13.438;2022-09-03T17:59:34;23.40;32.90
71563;DHT22;59391;52.504;13.438;2022-09-03T18:02:22;23.40;32.80
71563;DHT22;59391;52.504;13.438;2022-09-03T18:05:18;23.30;32.80
71563;DHT22;59391;52.504;13.438;2022-09-03T18:10:43;23.20;32.90
71563;DHT22;59391;52.504;13.438;2022-09-03T18:16:08;23.20;33.10
71563;DHT22;59391;52.504;13.438;2022-09-03T18:18:43;23.10;33.20
71563;DHT22;59391;52.504;13.438;2022-09-03T18:21:23;23.10;33.20
71563;DHT22;59391;52.504;13.438;2022-09-03T18:24:20;23.10;33.20
71563;DHT22;59391;52.504;13.438;2022-09-03T18:30:27;23.00;33.20
71563;DHT22;59391;52.504;13.438;2022-09-03T18:33:12;23.00;33.10
71563;DHT22;59391;52.504;13.438;2022-09-03T18:35:58;22.90;33.20
71563;DHT22;59391;52.504;13.438;2022-09-03T18:38:42;22.90;33.30
71563;DHT22;59391;52.504;13.438;2022-09-03T18:48:35;22.80;33.40
71563;DHT22;59391;52.504;13.438;2022-09-03T18:51:50;22.80;33.30
71563;DHT22;59391;52.504;13.438;2022-09-03T18:55:08;22.80;33.50
71563;DHT22;59391;52.504;13.438;2022-09-03T18:58:07;22.80;33.60
71563;DHT22;59391;52.504;13.438;2022-09-03T19:08:20;22.70;33.80
71563;DHT22;59391;52.504;13.438;2022-09-03T19:11:29;22.60;33.90
71563;DHT22;59391;52.504;13.438;2022-09-03T19:14:34;22.60;33.80
71563;DHT22;59391;52.504;13.438;2022-09-03T19:18:03;22.60;33.90
71563;DHT22;59391;52.504;13.438;2022-09-03T19:21:02;22.60;33.90
71563;DHT22;59391;52.504;13.438;2022-09-03T19:23:58;22.50;34.00
71563;DHT22;59391;52.504;13.438;2022-09-03T19:27:14;22.50;33.90
71563;DHT22;59391;52.504;13.438;2022-09-03T19:34:12;22.40;34.10
71563;DHT22;59391;52.504;13.438;2022-09-03T19:37:30;22.40;34.20
71563;DHT22;59391;52.504;13.438;2022-09-03T19:47:43;22.30;34.30
71563;DHT22;59391;52.504;13.438;2022-09-03T19:50:42;22.30;34.40
71563;DHT22;59391;52.504;13.438;2022-09-03T19:53:44;22.30;34.50
71563;DHT22;59391;52.504;13.438;2022-09-03T19:56:32;22.30;34.70
71563;DHT22;59391;52.504;13.438;2022-09-03T19:59:32;22.20;34.60
71563;DHT22;59391;52.504;13.438;2022-09-03T20:02:22;22.20;34.60
71563;DHT22;59391;52.504;13.438;2022-09-03T20:05:17;22.20;34.60
71563;DHT22;59391;52.504;13.438;2022-09-03T20:08:06;22.20;34.80
71563;DHT22;59391;52.504;13.438;2022-09-03T20:10:55;22.10;34.80
71563;DHT22;59391;52.504;13.438;2022-09-03T20:13:26;22.10;34.70
71563;DHT22;59391;52.504;13.438;2022-09-03T20:21:38;22.10;34.80
71563;DHT22;59391;52.504;13.438;2022-09-03T20:24:38;22.10;34.80
71563;DHT22;59391;52.504;13.438;2022-09-03T20:31:00;22.00;34.80
71563;DHT22;59391;52.504;13.438;2022-09-03T20:34:01;22.00;34.80
71563;DHT22;59391;52.504;13.438;2022-09-03T20:39:51;22.00;34.80
71563;DHT22;59391;52.504;13.438;2022-09-03T20:45:28;21.90;34.80
71563;DHT22;59391;52.504;13.438;2022-09-03T20:51:50;21.90;34.90
71563;DHT22;59391;52.504;13.438;2022-09-03T20:54:34;21.90;34.90
71563;DHT22;59391;52.504;13.438;2022-09-03T21:00:14;21.80;35.10
71563;DHT22;59391;52.504;13.438;2022-09-03T21:06:18;21.80;35.00
71563;DHT22;59391;52.504;13.438;2022-09-03T21:13:03;21.70;34.90
71563;DHT22;59391;52.504;13.438;2022-09-03T21:15:59;21.70;35.10
71563;DHT22;59391;52.504;13.438;2022-09-03T21:24:56;21.60;35.20
71563;DHT22;59391;52.504;13.438;2022-09-03T21:27:37;21.60;35.10
71563;DHT22;59391;52.504;13.438;2022-09-03T21:30:12;21.60;35.30
71563;DHT22;59391;52.504;13.438;2022-09-03T21:33:05;21.50;35.20
71563;DHT22;59391;52.504;13.438;2022-09-03T21:35:53;21.50;35.30
71563;DHT22;59391;52.504;13.438;2022-09-03T21:39:18;21.50;35.60
71563;DHT22;59391;52.504;13.438;2022-09-03T21:46:18;21.40;35.60
71563;DHT22;59391;52.504;13.438;2022-09-03T21:48:55;21.40;35.60
71563;DHT22;59391;52.504;13.438;2022-09-03T21:51:46;21.40;35.80
71563;DHT22;59391;52.504;13.438;2022-09-03T21:54:36;21.40;35.50
71563;DHT22;59391;52.504;13.438;2022-09-03T21:57:11;21.40;35.40
71563;DHT22;59391;52.504;13.438;2022-09-03T22:02:39;21.30;35.70
71563;DHT22;59391;52.504;13.438;2022-09-03T22:05:15;21.30;35.60
71563;DHT22;59391;52.504;13.438;2022-09-03T22:13:33;21.20;35.60
71563;DHT22;59391;52.504;13.438;2022-09-03T22:16:22;21.20;35.70
71563;DHT22;59391;52.504;13.438;2022-09-03T22:18:55;21.20;35.70
71563;DHT22;59391;52.504;13.438;2022-09-03T22:30:08;21.10;36.00
71563;DHT22;59391;52.504;13.438;2022-09-03T22:32:55;21.10;35.90
71563;DHT22;59391;52.504;13.438;2022-09-03T22:42:10;21.00;36.40
71563;DHT22;59391;52.504;13.438;2022-09-03T22:51:58;20.90;36.30
71563;DHT22;59391;52.504;13.438;2022-09-03T22:54:51;20.80;36.70
71563;DHT22;59391;52.504;13.438;2022-09-03T22:57:53;20.80;36.60
71563;DHT22;59391;52.504;13.438;2022-09-03T23:00:23;20.80;36.80
71563;DHT22;59391;52.504;13.438;2022-09-03T23:02:58;20.70;36.80
71563;DHT22;59391;52.504;13.438;2022-09-03T23:05:44;20.70;36.70
71563;DHT22;59391;52.504;13.438;2022-09-03T23:08:26;20.70;37.00
71563;DHT22;59391;52.504;13.438;2022-09-03T23:13:53;20.60;36.90
71563;DHT22;59391;52.504;13.438;2022-09-03T23:16:46;20.60;36.90
71563;DHT22;59391;52.504;13.438;2022-09-03T23:19:20;20.60;37.00
71563;DHT22;59391;52.504;13.438;2022-09-03T23:22:00;20.50;37.00
71563;DHT22;59391;52.504;13.438;2022-09-03T23:27:24;20.40;37.30
71563;DHT22;59391;52.504;13.438;2022-09-03T23:29:58;20.40;37.20
71563;DHT22;59391;52.504;13.438;2022-09-03T23:32:27;20.40;37.50
71563;DHT22;59391;52.504;13.438;2022-09-03T23:34:56;20.30;37.50
71563;DHT22;59391;52.504;13.438;2022-09-03T23:37:59;20.30;37.50
71563;DHT22;59391;52.504;13.438;2022-09-03T23:43:30;20.20;37.70
71563;DHT22;59391;52.504;13.438;2022-09-03T23:46:24;20.10;37.90